sensor_id;sensor_type;location;lat;lon;timestamp;pressure;altitude;pressure_sealevel;temperature;humidity
11648;BME280;5880;52.342;9.662;2023-04-26T00:00:16;101012.53;;;9.94;44.65
11648;BME280;5880;52.342;9.662;2023-04-26T00:02:42;101010.69;;;9.88;44.48
11648;BME280;5880;52.342;9.662;2023-04-26T00:05:08;101020.09;;;9.92;44.78
11648;BME280;5880;52.342;9.662;2023-04-26T00:07:34;101021.38;;;9.90;44.68
11648;BME280;5880;52.342;9.662;2023-04-26T00:10:00;101009.44;;;9.84;44.67
11648;BME280;5880;52.342;9.662;2023-04-26T00:12:26;101021.19;;;9.85;44.70
11648;BME280;5880;52.342;9.662;2023-04-26T00:14:52;101021.81;;;9.87;44.78
11648;BME280;5880;52.342;9.662;2023-04-26T00:17:17;101021.81;;;9.87;44.77
11648;BME280;5880;52.342;9.662;2023-04-26T00:19:43;101015.75;;;9.85;44.79
11648;BME280;5880;52.342;9.662;2023-04-26T00:22:09;101018.47;;;9.85;44.74
11648;BME280;5880;52.342;9.662;2023-04-26T00:24:35;101015.97;;;9.83;44.84
11648;BME280;5880;52.342;9.662;2023-04-26T00:27:01;101015.34;;;9.81;44.86
11648;BME280;5880;52.342;9.662;2023-04-26T00:29:33;101011.38;;;9.77;44.86
11648;BME280;5880;52.342;9.662;2023-04-26T00:31:59;101013.91;;;9.79;44.73
11648;BME280;5880;52.342;9.662;2023-04-26T00:34:31;101004.22;;;9.76;44.94
11648;BME280;5880;52.342;9.662;2023-04-26T00:36:57;101015.38;;;9.75;44.83
11648;BME280;5880;52.342;9.662;2023-04-26T00:39:23;101011.84;;;9.67;44.96
11648;BME280;5880;52.342;9.662;2023-04-26T00:41:49;101011.41;;;9.70;45.00
11648;BME280;5880;52.342;9.662;2023-04-26T00:44:15;101015.19;;;9.69;45.04
11648;BME280;5880;52.342;9.662;2023-04-26T00:46:40;101009.75;;;9.69;45.03
11648;BME280;5880;52.342;9.662;2023-04-26T00:49:06;101019.19;;;9.67;45.06
11648;BME280;5880;52.342;9.662;2023-04-26T00:51:32;101013.53;;;9.62;45.02
11648;BME280;5880;52.342;9.662;2023-04-26T00:53:58;101007.25;;;9.61;44.94
11648;BME280;5880;52.342;9.662;2023-04-26T00:56:24;101015.84;;;9.65;45.24
11648;BME280;5880;52.342;9.662;2023-04-26T00:58:50;101013.13;;;9.58;45.07
11648;BME280;5880;52.342;9.662;2023-04-26T01:01:16;101022.78;;;9.61;45.10
11648;BME280;5880;52.342;9.662;2023-04-26T01:03:42;101022.16;;;9.59;44.86
11648;BME280;5880;52.342;9.662;2023-04-26T01:06:10;101033.06;;;9.59;45.19
11648;BME280;5880;52.342;9.662;2023-04-26T01:08:36;101022.38;;;9.57;45.17
11648;BME280;5880;52.342;9.662;2023-04-26T01:11:03;101019.25;;;9.54;45.41
11648;BME280;5880;52.342;9.662;2023-04-26T01:13:31;101027.44;;;9.54;45.20
11648;BME280;5880;52.342;9.662;2023-04-26T01:15:58;101027.88;;;9.50;45.36
11648;BME280;5880;52.342;9.662;2023-04-26T01:18:24;101037.94;;;9.50;45.38
11648;BME280;5880;52.342;9.662;2023-04-26T01:20:50;101036.69;;;9.46;45.15
11648;BME280;5880;52.342;9.662;2023-04-26T01:23:17;101024.53;;;9.42;45.09
11648;BME280;5880;52.342;9.662;2023-04-26T01:25:43;101031.44;;;9.44;45.25
11648;BME280;5880;52.342;9.662;2023-04-26T01:28:09;101017.38;;;9.41;45.43
11648;BME280;5880;52.342;9.662;2023-04-26T01:30:35;101035.44;;;9.42;45.35
11648;BME280;5880;52.342;9.662;2023-04-26T01:33:00;101032.09;;;9.40;45.34
11648;BME280;5880;52.342;9.662;2023-04-26T01:35:26;101035.47;;;9.35;45.40
11648;BME280;5880;52.342;9.662;2023-04-26T01:37:51;101035.66;;;9.34;45.36
11648;BME280;5880;52.342;9.662;2023-04-26T01:40:17;101043.22;;;9.32;45.39
11648;BME280;5880;52.342;9.662;2023-04-26T01:42:43;101042.63;;;9.29;45.45
11648;BME280;5880;52.342;9.662;2023-04-26T01:45:09;101040.31;;;9.26;45.43
11648;BME280;5880;52.342;9.662;2023-04-26T01:47:35;101042.41;;;9.24;45.62
11648;BME280;5880;52.342;9.662;2023-04-26T01:50:00;101042.41;;;9.24;45.68
11648;BME280;5880;52.342;9.662;2023-04-26T01:52:26;101036.75;;;9.26;45.63
11648;BME280;5880;52.342;9.662;2023-04-26T01:54:52;101039.69;;;9.24;45.41
11648;BME280;5880;52.342;9.662;2023-04-26T01:57:17;101040.75;;;9.23;45.51
11648;BME280;5880;52.342;9.662;2023-04-26T01:59:43;101036.31;;;9.22;45.56
11648;BME280;5880;52.342;9.662;2023-04-26T02:02:09;101034.66;;;9.21;45.62
11648;BME280;5880;52.342;9.662;2023-04-26T02:04:34;101038.44;;;9.20;45.57
11648;BME280;5880;52.342;9.662;2023-04-26T02:07:00;101042.22;;;9.19;45.61
11648;BME280;5880;52.342;9.662;2023-04-26T02:09:26;101035.50;;;9.15;45.74
11648;BME280;5880;52.342;9.662;2023-04-26T02:11:52;101040.94;;;9.15;45.77
11648;BME280;5880;52.342;9.662;2023-04-26T02:14:17;101044.75;;;9.14;45.75
11648;BME280;5880;52.342;9.662;2023-04-26T02:16:43;101030.28;;;9.07;45.55
11648;BME280;5880;52.342;9.662;2023-04-26T02:19:09;101038.88;;;9.11;45.46
11648;BME280;5880;52.342;9.662;2023-04-26T02:21:56;101039.72;;;9.11;45.60
11648;BME280;5880;52.342;9.662;2023-04-26T02:24:23;101040.13;;;9.08;45.55
11648;BME280;5880;52.342;9.662;2023-04-26T02:26:50;101037.63;;;9.06;45.73
11648;BME280;5880;52.342;9.662;2023-04-26T02:29:16;101041.41;;;9.05;45.71
11648;BME280;5880;52.342;9.662;2023-04-26T02:31:42;101036.78;;;9.06;45.48
11648;BME280;5880;52.342;9.662;2023-04-26T02:34:08;101034.28;;;9.04;45.62
11648;BME280;5880;52.342;9.662;2023-04-26T02:36:34;101038.28;;;9.02;45.85
11648;BME280;5880;52.342;9.662;2023-04-26T02:39:00;101035.13;;;8.98;45.54
11648;BME280;5880;52.342;9.662;2023-04-26T02:41:26;101039.53;;;8.99;45.77
11648;BME280;5880;52.342;9.662;2023-04-26T02:43:51;101039.53;;;8.99;45.58
11648;BME280;5880;52.342;9.662;2023-04-26T02:46:17;101046.66;;;9.00;46.07
11648;BME280;5880;52.342;9.662;2023-04-26T02:48:43;101038.66;;;8.99;45.70
11648;BME280;5880;52.342;9.662;2023-04-26T02:51:09;101041.63;;;8.97;45.91
11648;BME280;5880;52.342;9.662;2023-04-26T02:53:35;101045.63;;;8.95;45.91
11648;BME280;5880;52.342;9.662;2023-04-26T02:56:01;101050.44;;;8.93;46.04
11648;BME280;5880;52.342;9.662;2023-04-26T02:58:26;101046.44;;;8.88;45.87
11648;BME280;5880;52.342;9.662;2023-04-26T03:00:52;101047.09;;;8.91;46.06
11648;BME280;5880;52.342;9.662;2023-04-26T03:03:19;101037.84;;;8.92;46.08
11648;BME280;5880;52.342;9.662;2023-04-26T03:05:45;101029.69;;;8.85;45.87
11648;BME280;5880;52.342;9.662;2023-04-26T03:08:11;101029.03;;;8.90;45.93
11648;BME280;5880;52.342;9.662;2023-04-26T03:10:37;101026.09;;;8.84;45.78
11648;BME280;5880;52.342;9.662;2023-04-26T03:13:04;101041.63;;;8.91;46.06
11648;BME280;5880;52.342;9.662;2023-04-26T03:15:30;101042.06;;;8.87;46.20
11648;BME280;5880;52.342;9.662;2023-04-26T03:17:55;101045.81;;;8.86;45.89
11648;BME280;5880;52.342;9.662;2023-04-26T03:20:23;101048.53;;;8.86;46.17
11648;BME280;5880;52.342;9.662;2023-04-26T03:22:49;101036.59;;;8.81;45.92
11648;BME280;5880;52.342;9.662;2023-04-26T03:25:15;101042.47;;;8.84;45.82
11648;BME280;5880;52.342;9.662;2023-04-26T03:27:41;101038.06;;;8.83;46.02
11648;BME280;5880;52.342;9.662;2023-04-26T03:30:07;101040.59;;;8.85;45.95
11648;BME280;5880;52.342;9.662;2023-04-26T03:32:33;101038.06;;;8.83;46.40
11648;BME280;5880;52.342;9.662;2023-04-26T03:34:59;101032.63;;;8.83;46.14
11648;BME280;5880;52.342;9.662;2023-04-26T03:37:25;101028.00;;;8.84;46.46
11648;BME280;5880;52.342;9.662;2023-04-26T03:39:50;101024.25;;;8.78;46.30
11648;BME280;5880;52.342;9.662;2023-04-26T03:42:19;101038.91;;;8.84;46.40
11648;BME280;5880;52.342;9.662;2023-04-26T03:44:45;101039.09;;;8.82;46.41
11648;BME280;5880;52.342;9.662;2023-04-26T03:47:11;101041.81;;;8.82;46.47
11648;BME280;5880;52.342;9.662;2023-04-26T03:49:36;101046.44;;;8.82;46.49
11648;BME280;5880;52.342;9.662;2023-04-26T03:52:02;101043.72;;;8.82;46.43
11648;BME280;5880;52.342;9.662;2023-04-26T03:54:28;101041.81;;;8.82;46.29
11648;BME280;5880;52.342;9.662;2023-04-26T03:56:54;101029.06;;;8.76;46.07
11648;BME280;5880;52.342;9.662;2023-04-26T03:59:19;101046.69;;;8.80;46.32
11648;BME280;5880;52.342;9.662;2023-04-26T04:01:45;101038.69;;;8.79;46.27
11648;BME280;5880;52.342;9.662;2023-04-26T04:04:11;101038.91;;;8.77;46.55
11648;BME280;5880;52.342;9.662;2023-04-26T04:06:36;101033.06;;;8.74;46.62
11648;BME280;5880;52.342;9.662;2023-04-26T04:09:03;101037.63;;;8.73;46.62
11648;BME280;5880;52.342;9.662;2023-04-26T04:11:31;101045.81;;;8.73;46.38
11648;BME280;5880;52.342;9.662;2023-04-26T04:13:57;101044.78;;;8.74;46.65
11648;BME280;5880;52.342;9.662;2023-04-26T04:16:23;101027.16;;;8.70;46.81
11648;BME280;5880;52.342;9.662;2023-04-26T04:18:48;101046.44;;;8.75;47.02
11648;BME280;5880;52.342;9.662;2023-04-26T04:21:14;101044.16;;;8.79;46.63
11648;BME280;5880;52.342;9.662;2023-04-26T04:23:40;101034.91;;;8.80;47.14
11648;BME280;5880;52.342;9.662;2023-04-26T04:26:06;101043.53;;;8.83;46.82
11648;BME280;5880;52.342;9.662;2023-04-26T04:28:32;101035.97;;;8.79;46.94
11648;BME280;5880;52.342;9.662;2023-04-26T04:30:58;101045.19;;;8.84;46.95
11648;BME280;5880;52.342;9.662;2023-04-26T04:33:25;101041.81;;;8.89;47.09
11648;BME280;5880;52.342;9.662;2023-04-26T04:35:53;101041.00;;;8.88;47.17
11648;BME280;5880;52.342;9.662;2023-04-26T04:38:19;101042.66;;;8.96;47.02
11648;BME280;5880;52.342;9.662;2023-04-26T04:40:47;101051.06;;;9.01;47.33
11648;BME280;5880;52.342;9.662;2023-04-26T04:43:14;101059.44;;;9.06;47.09
11648;BME280;5880;52.342;9.662;2023-04-26T04:45:41;101068.84;;;9.11;47.29
11648;BME280;5880;52.342;9.662;2023-04-26T04:48:06;101064.66;;;9.15;47.34
11648;BME280;5880;52.342;9.662;2023-04-26T04:50:33;101058.56;;;9.13;47.33
11648;BME280;5880;52.342;9.662;2023-04-26T04:53:00;101059.41;;;9.20;47.28
11648;BME280;5880;52.342;9.662;2023-04-26T04:55:26;101058.38;;;9.21;47.21
11648;BME280;5880;52.342;9.662;2023-04-26T04:57:52;101056.28;;;9.23;47.50
11648;BME280;5880;52.342;9.662;2023-04-26T05:00:18;101055.66;;;9.21;47.23
11648;BME280;5880;52.342;9.662;2023-04-26T05:02:44;101067.38;;;9.28;47.28
11648;BME280;5880;52.342;9.662;2023-04-26T05:05:10;101070.72;;;9.30;47.35
11648;BME280;5880;52.342;9.662;2023-04-26T05:07:36;101069.66;;;9.31;47.21
11648;BME280;5880;52.342;9.662;2023-04-26T05:10:02;101069.66;;;9.31;47.02
11648;BME280;5880;52.342;9.662;2023-04-26T05:12:28;101069.47;;;9.33;47.23
11648;BME280;5880;52.342;9.662;2023-04-26T05:14:54;101070.09;;;9.35;47.55
11648;BME280;5880;52.342;9.662;2023-04-26T05:17:20;101077.00;;;9.37;47.28
11648;BME280;5880;52.342;9.662;2023-04-26T05:19:45;101070.28;;;9.40;47.99
11648;BME280;5880;52.342;9.662;2023-04-26T05:22:11;101070.47;;;9.51;48.84
11648;BME280;5880;52.342;9.662;2023-04-26T05:24:46;101075.84;;;9.71;49.65
11648;BME280;5880;52.342;9.662;2023-04-26T05:27:12;101087.50;;;9.99;50.44
11648;BME280;5880;52.342;9.662;2023-04-26T05:29:38;101086.97;;;10.28;50.90
11648;BME280;5880;52.342;9.662;2023-04-26T05:32:05;101086.34;;;10.58;50.92
11648;BME280;5880;52.342;9.662;2023-04-26T05:34:31;101083.38;;;10.91;51.12
11648;BME280;5880;52.342;9.662;2023-04-26T05:36:56;101089.91;;;11.34;50.73
11648;BME280;5880;52.342;9.662;2023-04-26T05:39:22;101092.84;;;11.76;50.91
11648;BME280;5880;52.342;9.662;2023-04-26T05:41:48;101088.22;;;12.25;50.58
11648;BME280;5880;52.342;9.662;2023-04-26T05:44:13;101090.63;;;12.75;50.41
11648;BME280;5880;52.342;9.662;2023-04-26T05:46:40;101090.44;;;13.24;49.95
11648;BME280;5880;52.342;9.662;2023-04-26T05:49:05;101096.16;;;13.69;49.71
11648;BME280;5880;52.342;9.662;2023-04-26T05:51:31;101093.41;;;14.22;49.29
11648;BME280;5880;52.342;9.662;2023-04-26T05:53:57;101094.19;;;14.63;49.03
11648;BME280;5880;52.342;9.662;2023-04-26T05:56:23;101089.03;;;15.00;48.28
11648;BME280;5880;52.342;9.662;2023-04-26T05:58:50;101094.78;;;15.32;47.38
11648;BME280;5880;52.342;9.662;2023-04-26T06:01:17;101089.28;;;15.54;46.79
11648;BME280;5880;52.342;9.662;2023-04-26T06:03:45;101095.69;;;15.77;45.84
11648;BME280;5880;52.342;9.662;2023-04-26T06:06:11;101103.97;;;15.77;45.06
11648;BME280;5880;52.342;9.662;2023-04-26T06:08:36;101101.97;;;15.72;44.88
11648;BME280;5880;52.342;9.662;2023-04-26T06:11:03;101108.38;;;15.78;45.30
11648;BME280;5880;52.342;9.662;2023-04-26T06:13:28;101098.78;;;16.02;45.94
11648;BME280;5880;52.342;9.662;2023-04-26T06:15:54;101095.59;;;16.38;46.14
11648;BME280;5880;52.342;9.662;2023-04-26T06:18:20;101099.28;;;16.76;46.10
11648;BME280;5880;52.342;9.662;2023-04-26T06:20:46;101098.31;;;17.24;46.39
11648;BME280;5880;52.342;9.662;2023-04-26T06:23:11;101096.94;;;17.75;46.11
11648;BME280;5880;52.342;9.662;2023-04-26T06:25:37;101099.13;;;18.25;45.91
11648;BME280;5880;52.342;9.662;2023-04-26T06:28:06;101098.13;;;18.57;44.74
11648;BME280;5880;52.342;9.662;2023-04-26T06:30:32;101103.91;;;18.66;43.53
11648;BME280;5880;52.342;9.662;2023-04-26T06:32:57;101105.31;;;18.63;42.13
11648;BME280;5880;52.342;9.662;2023-04-26T06:35:24;101105.00;;;18.44;41.60
11648;BME280;5880;52.342;9.662;2023-04-26T06:37:50;101107.13;;;18.17;40.77
11648;BME280;5880;52.342;9.662;2023-04-26T06:40:16;101105.09;;;17.86;40.62
11648;BME280;5880;52.342;9.662;2023-04-26T06:42:45;101106.03;;;17.65;41.39
11648;BME280;5880;52.342;9.662;2023-04-26T06:45:10;101109.38;;;17.67;42.34
11648;BME280;5880;52.342;9.662;2023-04-26T06:47:37;101111.22;;;17.93;43.15
11648;BME280;5880;52.342;9.662;2023-04-26T06:50:03;101107.75;;;18.34;43.25
11648;BME280;5880;52.342;9.662;2023-04-26T06:52:30;101101.44;;;18.59;42.95
11648;BME280;5880;52.342;9.662;2023-04-26T06:54:55;101115.56;;;18.73;41.98
11648;BME280;5880;52.342;9.662;2023-04-26T06:57:21;101113.91;;;18.72;41.29
11648;BME280;5880;52.342;9.662;2023-04-26T06:59:47;101115.03;;;18.76;41.79
11648;BME280;5880;52.342;9.662;2023-04-26T07:02:13;101119.47;;;18.82;41.43
11648;BME280;5880;52.342;9.662;2023-04-26T07:04:38;101125.31;;;18.81;40.90
11648;BME280;5880;52.342;9.662;2023-04-26T07:07:04;101123.59;;;18.69;39.99
11648;BME280;5880;52.342;9.662;2023-04-26T07:09:30;101122.16;;;18.46;39.61
11648;BME280;5880;52.342;9.662;2023-04-26T07:11:56;101120.69;;;18.18;39.17
11648;BME280;5880;52.342;9.662;2023-04-26T07:14:23;101125.28;;;17.92;39.25
11648;BME280;5880;52.342;9.662;2023-04-26T07:16:49;101132.69;;;17.81;39.90
11648;BME280;5880;52.342;9.662;2023-04-26T07:19:14;101131.38;;;17.89;40.51
11648;BME280;5880;52.342;9.662;2023-04-26T07:21:40;101128.06;;;17.97;40.55
11648;BME280;5880;52.342;9.662;2023-04-26T07:24:06;101125.91;;;18.09;40.64
11648;BME280;5880;52.342;9.662;2023-04-26T07:26:34;101117.94;;;18.23;40.60
11648;BME280;5880;52.342;9.662;2023-04-26T07:29:01;101120.22;;;18.42;40.87
11648;BME280;5880;52.342;9.662;2023-04-26T07:31:30;101128.88;;;18.76;40.88
11648;BME280;5880;52.342;9.662;2023-04-26T07:33:57;101125.31;;;19.11;40.88
11648;BME280;5880;52.342;9.662;2023-04-26T07:36:22;101133.88;;;19.40;40.71
11648;BME280;5880;52.342;9.662;2023-04-26T07:38:49;101136.63;;;19.76;40.55
11648;BME280;5880;52.342;9.662;2023-04-26T07:41:14;101132.34;;;20.10;40.27
11648;BME280;5880;52.342;9.662;2023-04-26T07:43:42;101126.09;;;20.38;39.83
11648;BME280;5880;52.342;9.662;2023-04-26T07:46:07;101125.69;;;20.55;39.66
11648;BME280;5880;52.342;9.662;2023-04-26T07:48:33;101124.28;;;20.68;39.09
11648;BME280;5880;52.342;9.662;2023-04-26T07:51:10;101130.06;;;20.72;39.25
11648;BME280;5880;52.342;9.662;2023-04-26T07:53:38;101127.94;;;20.58;38.64
11648;BME280;5880;52.342;9.662;2023-04-26T07:56:05;101125.78;;;20.45;37.96
11648;BME280;5880;52.342;9.662;2023-04-26T07:58:37;101129.16;;;20.32;37.92
11648;BME280;5880;52.342;9.662;2023-04-26T08:01:06;101130.91;;;20.17;38.20
11648;BME280;5880;52.342;9.662;2023-04-26T08:03:32;101138.44;;;20.12;38.40
11648;BME280;5880;52.342;9.662;2023-04-26T08:05:58;101121.50;;;20.08;38.34
11648;BME280;5880;52.342;9.662;2023-04-26T08:08:26;101120.97;;;20.11;37.80
11648;BME280;5880;52.342;9.662;2023-04-26T08:10:52;101134.56;;;20.08;37.85
11648;BME280;5880;52.342;9.662;2023-04-26T08:13:18;101133.78;;;19.92;37.21
11648;BME280;5880;52.342;9.662;2023-04-26T08:15:43;101140.22;;;19.77;37.26
11648;BME280;5880;52.342;9.662;2023-04-26T08:18:09;101132.19;;;19.60;37.08
11648;BME280;5880;52.342;9.662;2023-04-26T08:20:35;101128.63;;;19.39;37.16
11648;BME280;5880;52.342;9.662;2023-04-26T08:23:01;101128.91;;;19.17;36.79
11648;BME280;5880;52.342;9.662;2023-04-26T08:25:26;101125.88;;;18.88;36.94
11648;BME280;5880;52.342;9.662;2023-04-26T08:27:52;101134.38;;;18.61;36.85
11648;BME280;5880;52.342;9.662;2023-04-26T08:30:18;101132.09;;;18.32;36.96
11648;BME280;5880;52.342;9.662;2023-04-26T08:32:45;101129.78;;;18.08;36.85
11648;BME280;5880;52.342;9.662;2023-04-26T08:35:11;101117.50;;;17.84;37.37
11648;BME280;5880;52.342;9.662;2023-04-26T08:37:37;101116.28;;;17.69;37.39
11648;BME280;5880;52.342;9.662;2023-04-26T08:40:07;101114.63;;;17.68;37.75
11648;BME280;5880;52.342;9.662;2023-04-26T08:42:41;101126.19;;;17.60;37.28
11648;BME280;5880;52.342;9.662;2023-04-26T08:45:09;101116.44;;;17.47;37.14
11648;BME280;5880;52.342;9.662;2023-04-26T08:47:57;101127.13;;;17.34;37.27
11648;BME280;5880;52.342;9.662;2023-04-26T08:50:28;101124.56;;;17.22;37.51
11648;BME280;5880;52.342;9.662;2023-04-26T08:52:55;101139.69;;;17.14;37.32
11648;BME280;5880;52.342;9.662;2023-04-26T08:55:21;101132.09;;;16.99;36.87
11648;BME280;5880;52.342;9.662;2023-04-26T08:57:49;101141.91;;;16.85;36.96
11648;BME280;5880;52.342;9.662;2023-04-26T09:00:16;101136.22;;;16.70;37.07
11648;BME280;5880;52.342;9.662;2023-04-26T09:02:52;101132.72;;;16.52;37.04
11648;BME280;5880;52.342;9.662;2023-04-26T09:05:19;101135.00;;;16.33;37.18
11648;BME280;5880;52.342;9.662;2023-04-26T09:07:49;101144.75;;;16.19;37.22
11648;BME280;5880;52.342;9.662;2023-04-26T09:10:20;101136.38;;;16.09;37.52
11648;BME280;5880;52.342;9.662;2023-04-26T09:12:51;101142.66;;;16.04;37.63
11648;BME280;5880;52.342;9.662;2023-04-26T09:15:19;101143.66;;;15.98;38.06
11648;BME280;5880;52.342;9.662;2023-04-26T09:17:44;101139.25;;;15.97;38.11
11648;BME280;5880;52.342;9.662;2023-04-26T09:23:03;101142.84;;;15.97;38.10
11648;BME280;5880;52.342;9.662;2023-04-26T09:25:31;101141.91;;;15.92;38.16
11648;BME280;5880;52.342;9.662;2023-04-26T09:27:57;101141.28;;;15.85;38.06
11648;BME280;5880;52.342;9.662;2023-04-26T09:30:23;101131.00;;;15.80;38.32
11648;BME280;5880;52.342;9.662;2023-04-26T09:32:55;101136.88;;;15.83;38.36
11648;BME280;5880;52.342;9.662;2023-04-26T09:37:59;101128.41;;;15.90;38.65
11648;BME280;5880;52.342;9.662;2023-04-26T09:40:27;101135.41;;;15.98;38.53
11648;BME280;5880;52.342;9.662;2023-04-26T09:43:11;101140.19;;;16.08;38.57
11648;BME280;5880;52.342;9.662;2023-04-26T09:45:56;101130.84;;;16.09;38.06
11648;BME280;5880;52.342;9.662;2023-04-26T09:48:28;101139.03;;;16.03;38.39
11648;BME280;5880;52.342;9.662;2023-04-26T09:51:15;101133.47;;;15.98;38.48
11648;BME280;5880;52.342;9.662;2023-04-26T09:53:46;101137.44;;;16.08;38.59
11648;BME280;5880;52.342;9.662;2023-04-26T09:56:14;101137.84;;;16.16;38.88
11648;BME280;5880;52.342;9.662;2023-04-26T09:58:58;101137.88;;;16.21;38.44
11648;BME280;5880;52.342;9.662;2023-04-26T10:01:27;101145.16;;;16.28;38.36
11648;BME280;5880;52.342;9.662;2023-04-26T10:03:55;101141.34;;;16.34;38.47
11648;BME280;5880;52.342;9.662;2023-04-26T10:06:22;101145.50;;;16.36;38.02
11648;BME280;5880;52.342;9.662;2023-04-26T10:08:48;101141.91;;;16.36;38.05
11648;BME280;5880;52.342;9.662;2023-04-26T10:11:13;101137.75;;;16.33;37.88
11648;BME280;5880;52.342;9.662;2023-04-26T10:13:41;101138.09;;;16.37;37.58
11648;BME280;5880;52.342;9.662;2023-04-26T10:16:08;101145.50;;;16.36;37.81
11648;BME280;5880;52.342;9.662;2023-04-26T10:18:34;101135.25;;;16.32;37.74
11648;BME280;5880;52.342;9.662;2023-04-26T10:21:17;101152.13;;;16.35;37.59
11648;BME280;5880;52.342;9.662;2023-04-26T10:23:46;101154.50;;;16.27;37.42
11648;BME280;5880;52.342;9.662;2023-04-26T10:26:51;101154.91;;;16.13;37.44
11648;BME280;5880;52.342;9.662;2023-04-26T10:29:23;101152.00;;;16.03;37.61
11648;BME280;5880;52.342;9.662;2023-04-26T10:35:10;101146.78;;;15.85;37.72
11648;BME280;5880;52.342;9.662;2023-04-26T10:40:32;101127.59;;;15.73;37.77
11648;BME280;5880;52.342;9.662;2023-04-26T10:45:37;101136.16;;;15.71;38.13
11648;BME280;5880;52.342;9.662;2023-04-26T10:48:22;101139.22;;;15.75;37.85
11648;BME280;5880;52.342;9.662;2023-04-26T10:53:24;101127.88;;;15.71;37.85
11648;BME280;5880;52.342;9.662;2023-04-26T10:55:50;101132.53;;;15.71;37.89
11648;BME280;5880;52.342;9.662;2023-04-26T10:58:33;101127.28;;;15.69;38.05
11648;BME280;5880;52.342;9.662;2023-04-26T11:01:17;101130.94;;;15.75;38.13
11648;BME280;5880;52.342;9.662;2023-04-26T11:04:07;101114.94;;;15.72;38.43
11648;BME280;5880;52.342;9.662;2023-04-26T11:06:50;101133.78;;;15.80;38.04
11648;BME280;5880;52.342;9.662;2023-04-26T11:09:40;101127.44;;;15.79;38.17
11648;BME280;5880;52.342;9.662;2023-04-26T11:12:14;101120.00;;;15.80;38.04
11648;BME280;5880;52.342;9.662;2023-04-26T11:14:41;101121.97;;;15.85;38.31
11648;BME280;5880;52.342;9.662;2023-04-26T11:17:08;101126.72;;;15.89;38.21
11648;BME280;5880;52.342;9.662;2023-04-26T11:19:34;101114.88;;;15.89;38.10
11648;BME280;5880;52.342;9.662;2023-04-26T11:22:01;101131.28;;;16.00;38.06
11648;BME280;5880;52.342;9.662;2023-04-26T11:24:30;101116.50;;;16.07;38.23
11648;BME280;5880;52.342;9.662;2023-04-26T11:26:57;101114.38;;;16.14;37.98
11648;BME280;5880;52.342;9.662;2023-04-26T11:29:24;101111.84;;;16.12;37.60
11648;BME280;5880;52.342;9.662;2023-04-26T11:31:55;101131.78;;;16.19;37.62
11648;BME280;5880;52.342;9.662;2023-04-26T11:34:32;101119.69;;;16.20;37.71
11648;BME280;5880;52.342;9.662;2023-04-26T11:37:00;101117.19;;;16.19;37.83
11648;BME280;5880;52.342;9.662;2023-04-26T11:39:26;101114.66;;;16.17;38.01
11648;BME280;5880;52.342;9.662;2023-04-26T11:42:09;101122.69;;;16.19;37.96
11648;BME280;5880;52.342;9.662;2023-04-26T11:44:35;101121.88;;;16.18;38.02
11648;BME280;5880;52.342;9.662;2023-04-26T11:47:03;101122.44;;;16.20;38.13
11648;BME280;5880;52.342;9.662;2023-04-26T11:49:31;101116.94;;;16.20;37.70
11648;BME280;5880;52.342;9.662;2023-04-26T11:51:58;101108.38;;;16.22;37.59
11648;BME280;5880;52.342;9.662;2023-04-26T11:54:32;101123.03;;;16.22;37.80
11648;BME280;5880;52.342;9.662;2023-04-26T11:56:58;101116.06;;;16.20;38.13
11648;BME280;5880;52.342;9.662;2023-04-26T11:59:28;101127.75;;;16.27;38.20
11648;BME280;5880;52.342;9.662;2023-04-26T12:01:58;101118.44;;;16.33;37.97
11648;BME280;5880;52.342;9.662;2023-04-26T12:04:27;101131.47;;;16.38;37.98
11648;BME280;5880;52.342;9.662;2023-04-26T12:06:54;101134.53;;;16.41;37.61
11648;BME280;5880;52.342;9.662;2023-04-26T12:09:27;101116.59;;;16.39;37.62
11648;BME280;5880;52.342;9.662;2023-04-26T12:12:01;101124.97;;;16.49;37.90
11648;BME280;5880;52.342;9.662;2023-04-26T12:16:59;101138.59;;;16.61;37.74
11648;BME280;5880;52.342;9.662;2023-04-26T12:19:26;101117.69;;;16.65;37.60
11648;BME280;5880;52.342;9.662;2023-04-26T12:21:52;101119.66;;;16.70;37.35
11648;BME280;5880;52.342;9.662;2023-04-26T12:24:28;101116.94;;;16.75;37.33
11648;BME280;5880;52.342;9.662;2023-04-26T12:27:04;101114.00;;;16.81;37.57
11648;BME280;5880;52.342;9.662;2023-04-26T12:29:34;101120.66;;;16.85;37.22
11648;BME280;5880;52.342;9.662;2023-04-26T12:32:00;101116.22;;;16.84;36.97
11648;BME280;5880;52.342;9.662;2023-04-26T12:34:27;101124.19;;;16.81;36.78
11648;BME280;5880;52.342;9.662;2023-04-26T12:36:52;101123.03;;;16.77;36.42
11648;BME280;5880;52.342;9.662;2023-04-26T12:39:18;101113.34;;;16.74;36.71
11648;BME280;5880;52.342;9.662;2023-04-26T12:41:44;101110.03;;;16.72;36.82
11648;BME280;5880;52.342;9.662;2023-04-26T12:44:11;101126.59;;;16.72;36.68
11648;BME280;5880;52.342;9.662;2023-04-26T12:46:37;101114.97;;;16.70;36.86
11648;BME280;5880;52.342;9.662;2023-04-26T12:49:03;101119.91;;;16.68;36.60
11648;BME280;5880;52.342;9.662;2023-04-26T12:51:29;101116.81;;;16.64;36.49
11648;BME280;5880;52.342;9.662;2023-04-26T12:53:56;101121.81;;;16.62;36.35
11648;BME280;5880;52.342;9.662;2023-04-26T12:56:23;101121.72;;;16.57;36.13
11648;BME280;5880;52.342;9.662;2023-04-26T12:58:49;101128.88;;;16.53;36.07
11648;BME280;5880;52.342;9.662;2023-04-26T13:01:15;101131.00;;;16.46;36.03
11648;BME280;5880;52.342;9.662;2023-04-26T13:03:40;101123.19;;;16.38;36.24
11648;BME280;5880;52.342;9.662;2023-04-26T13:06:07;101124.72;;;16.29;35.98
11648;BME280;5880;52.342;9.662;2023-04-26T13:08:33;101126.66;;;16.28;36.07
11648;BME280;5880;52.342;9.662;2023-04-26T13:10:58;101123.56;;;16.24;36.20
11648;BME280;5880;52.342;9.662;2023-04-26T13:13:24;101124.16;;;16.27;36.71
11648;BME280;5880;52.342;9.662;2023-04-26T13:15:51;101124.22;;;16.32;36.77
11648;BME280;5880;52.342;9.662;2023-04-26T13:18:16;101115.16;;;16.36;36.75
11648;BME280;5880;52.342;9.662;2023-04-26T13:20:43;101126.28;;;16.41;36.58
11648;BME280;5880;52.342;9.662;2023-04-26T13:23:09;101122.41;;;16.42;36.66
11648;BME280;5880;52.342;9.662;2023-04-26T13:25:36;101124.91;;;16.44;36.55